x

North Hecate Strait (46183) Wave Buoy

1:00pm - Mon 30th Mar 2015 All times are PDT. -7 hours from GMT.

  • Sig Wave height 10.8ft
  • Peak Period 8s
  • Wind
    29mph, 34mph gusts
  • Sea Temp 49°f
  • Air Temp 50°f
  • Sea Pressure 998.9mb
  • North Hecate Strait
  • North Hecate Strait

More Historic Weather Station data

Upgrade to MSW Pro to gain access to the past 30 days of data for over 8000 Wavebouys and Weather Stations around the globe.

Join Pro

Comparision Forecast

View Surf forecast
   
Mon 03/30 1:00pm 11ft 8s 29 34 mph 998.9mb 49f 50f
12:00pm 10.5ft 8s 36 43 mph 995.9mb 49f 49f
11:00am 10ft 7s 34 43 mph 994.8mb 49f 49f
9:00am  -   -  36
mph
- - -
8:00am 5ft 4s 27 34 mph 996.4mb 49f 46f
7:00am 4.5ft 4s 27 31 mph 998.4mb 49f 46f
6:00am 4.5ft 4s 22 29 mph 1001.3mb 49f 46f
5:00am 4.5ft 5s 22 27 mph 1004.3mb 49f 47f
4:00am 4ft 5s 22 27 mph 1006.6mb 49f 47f
3:00am 4ft 5s 16 18 mph 1008.7mb 49f 48f
2:00am 4ft 9s 18 22 mph 1009.9mb 49f 49f
1:00am 4ft 8s 20 22 mph 1010.9mb 49f 48f
12:00am 4ft 8s 18 22 mph 1012.3mb 49f 48f
Sun 03/29 11:00pm 4ft 8s 18 22 mph 1013.2mb 49f 48f
10:00pm 4ft 8s 18 20 mph 1014.3mb 49f 49f
9:00pm 3.5ft 9s 20 22 mph 1014.3mb 49f 49f
8:00pm 4ft 8s 16 20 mph 1014.7mb 49f 49f
7:00pm 3.5ft 9s 16 20 mph 1015.4mb 49f 49f
6:00pm 3.5ft 8s 13 16 mph 1016.2mb 49f 49f
5:00pm 3.5ft 9s 16 18 mph 1016.3mb 49f 49f
4:00pm 3.5ft 9s 13 16 mph 1016.3mb 49f 48f
3:00pm 3.5ft 9s 11 13 mph 1016.1mb 49f 47f
2:00pm 3.5ft 10s 18 20 mph 1015.4mb 49f 48f
1:00pm 3.5ft 9s 18 20 mph 1014.7mb 49f 48f
12:00pm 4ft 9s 13 18 mph 1013.5mb 49f 48f
11:00am 4.5ft 8s 16 18 mph 1012.9mb 49f 49f
10:00am 4.5ft 9s 18 22 mph 1011.6mb 49f 49f
9:00am 4.5ft 8s 13 18 mph 1010.8mb 49f 49f
8:00am 5ft 8s 18 22 mph 1009.9mb 49f 48f
7:00am 5.5ft 8s 18 22 mph 1009.1mb 49f 48f
6:00am 6ft 9s 20 27 mph 1008.6mb 49f 48f
5:00am 6ft 8s 22 27 mph 1008.6mb 49f 48f
4:00am 6ft 9s 25 29 mph 1008.1mb 49f 47f
3:00am 6ft 8s 22 29 mph 1008.2mb 49f 49f
2:00am 6.5ft 10s 22 27 mph 1008.3mb 49f 49f
1:00am 7ft 9s 16 20 mph 1008.6mb 49f 49f
12:00am 8ft 10s 22 27 mph 1008.5mb 49f 49f
Sat 03/28 11:00pm 8ft 9s 20 25 mph 1008.6mb 49f 49f
10:00pm 8.5ft 10s 22 27 mph 1008.4mb 49f 49f
9:00pm 10ft 10s 16 20 mph 1008mb 49f 49f
7:00pm 11ft 9s 20 25 mph 1005.9mb 49f 50f
6:00pm 11.5ft 9s 18 22 mph 1005.2mb 49f 50f
5:00pm 15ft 8s 20 25 mph 1004.7mb 49f 50f
4:00pm 15.5ft 8s 31 40 mph 1004.3mb 49f 49f
3:00pm 14ft 8s 38 49 mph 1004.1mb 49f 48f
2:00pm 14ft 8s 38
mph
1004.9mb 49f 48f
1:00pm 12ft 7s 38 49 mph 1005.8mb 49f 47f
12:00pm 10ft 7s 38 51 mph 1006.6mb 49f 47f
11:00am 8ft 6s 38 49 mph 1007.2mb 49f 48f
10:00am 7ft 6s 34 40 mph 1008.2mb 49f 48f
9:00am 5ft 5s 31 40 mph 1008.9mb 49f 48f
8:00am 4ft 4s 29 36 mph 1009.5mb 49f 48f
7:00am 3ft 4s 27 31 mph 1010.2mb 49f 48f
6:00am 2.5ft 3s 20 27 mph 1010.8mb 49f 48f
5:00am 1.6ft 2s 18 22 mph 1011.3mb 49f 48f
4:00am 1.3ft 7s 13 18 mph 1011.7mb 49f 48f
3:00am 1.3ft 11s 11 13 mph 1012.2mb 49f 47f
2:00am 1.3ft 12s 4 7 mph 1012.3mb 49f 47f
1:00am 1.3ft 11s  -  2 mph 1012.5mb 49f 47f
12:00am 1.3ft 12s 2
mph
1012.3mb 49f 47f
Fri 03/27 11:00pm 1.3ft 7s 4 7 mph 1012.1mb 49f 48f
10:00pm 1.6ft 13s 9 11 mph 1011.9mb 49f 48f
9:00pm 1.6ft 13s 9
mph
1011.5mb 49f 48f
8:00pm 1.6ft 13s 7 9 mph 1011.2mb 49f 48f
7:00pm 1.6ft 11s 9
mph
1011.3mb 49f 48f
6:00pm 2ft 12s 9 11 mph 1011.1mb 49f 49f
5:00pm 2ft 12s 9
mph
1011.6mb 49f 48f
4:00pm 2ft 7s 9
mph
1011.8mb 49f 48f
3:00pm 2.5ft 7s 9
mph
1012.5mb 49f 48f
2:00pm 2.5ft 7s 11
mph
1012.7mb 49f 48f
1:00pm 2.5ft 7s 9
mph
1012.7mb 49f 48f
12:00pm 2.5ft 7s 4 7 mph 1012.9mb 49f 48f
11:00am 2ft 8s 2
mph
1013.1mb 49f 48f
10:00am 2ft 8s 4 7 mph 1013.2mb 49f 47f
9:00am 2ft 12s 4 7 mph 1013.5mb 49f 47f
8:00am 2ft 11s 4 7 mph 1013.5mb 49f 47f
7:00am 2.5ft 8s 4
mph
1013.5mb 49f 47f
6:00am 2.5ft 8s 4 7 mph 1013.8mb 49f 47f
5:00am 2.5ft 7s 7
mph
1014.3mb 49f 47f
4:00am 2.5ft 7s 7
mph
1014.6mb 49f 48f
3:00am 3ft 8s 4 7 mph 1015.1mb 49f 48f
2:00am 3.5ft 8s 4 7 mph 1015.2mb 49f 47f
1:00am 3.5ft 8s 11
mph
1015mb 49f 47f
12:00am 3.5ft 8s 16 18 mph 1015mb 49f 47f
Thu 03/26 11:00pm 4ft 8s 18 20 mph 1015.1mb 49f 47f
10:00pm 4ft 5s 18 20 mph 1015.3mb 49f 47f